createdAt,value
2022-12-11T00:00:21.614Z,99018.09
2022-12-11T00:03:15.682Z,99008.47
2022-12-11T00:05:45.127Z,99016.09
2022-12-11T00:08:14.462Z,99020.72
2022-12-11T00:10:49.824Z,99025.16
2022-12-11T00:13:18.773Z,99029.81
2022-12-11T00:15:47.363Z,99030.16
2022-12-11T00:18:16.512Z,99020.84
2022-12-11T00:20:45.173Z,99031.47
2022-12-11T00:23:14.136Z,99028.94
2022-12-11T00:25:46.622Z,99031.75
2022-12-11T00:28:18.533Z,99035.38
2022-12-11T00:30:47.222Z,99034.03
2022-12-11T00:33:16.303Z,99034.22
2022-12-11T00:35:46.436Z,99026.41
2022-12-11T00:38:20.212Z,99031.06
2022-12-11T00:40:49.544Z,99029.53
2022-12-11T00:43:18.785Z,99039.31
2022-12-11T00:45:48.759Z,99041.28
2022-12-11T00:48:19.725Z,99045.91
2022-12-11T00:50:49.242Z,99039.94
2022-12-11T00:53:19.136Z,99045.41
2022-12-11T00:55:47.754Z,99047.34
2022-12-11T00:58:17.976Z,99047.50
2022-12-11T01:00:48.415Z,99046.00
2022-12-11T01:03:17.554Z,99050.63
2022-12-11T01:05:54.522Z,99058.06
2022-12-11T01:08:24.858Z,99064.34
2022-12-11T01:11:01.072Z,99061.84
2022-12-11T01:13:30.101Z,99059.34
2022-12-11T01:15:58.704Z,99063.00
2022-12-11T01:18:28.973Z,99050.72
2022-12-11T01:20:58.313Z,99060.66
2022-12-11T01:23:27.294Z,99057.19
2022-12-11T01:25:55.893Z,99065.28
2022-12-11T01:28:24.826Z,99064.59
2022-12-11T01:30:53.634Z,99065.56
2022-12-11T01:33:22.523Z,99067.41
2022-12-11T01:35:51.023Z,99076.50
2022-12-11T01:38:20.023Z,99080.94
2022-12-11T01:40:50.005Z,99082.09
2022-12-11T01:43:20.082Z,99084.91
2022-12-11T01:45:48.894Z,99083.41
2022-12-11T01:48:29.203Z,99079.91
2022-12-11T01:51:00.602Z,99081.75
2022-12-11T01:53:35.742Z,99082.03
2022-12-11T01:56:04.563Z,99086.53
2022-12-11T01:58:35.296Z,99084.00
2022-12-11T02:01:04.219Z,99084.97
2022-12-11T02:03:33.782Z,99086.81
2022-12-11T02:06:02.747Z,99087.81
2022-12-11T02:08:31.662Z,99092.25
2022-12-11T02:11:10.752Z,99074.31
2022-12-11T02:13:54.622Z,99088.94
2022-12-11T02:16:33.740Z,99082.59
2022-12-11T02:19:13.761Z,99093.19
2022-12-11T02:21:45.983Z,99100.66
2022-12-11T02:24:43.477Z,99098.16
2022-12-11T02:27:22.173Z,99099.31
2022-12-11T02:30:16.963Z,99099.47
2022-12-11T02:32:58.804Z,99088.47
2022-12-11T02:35:34.814Z,99102.25
2022-12-11T02:38:38.263Z,99111.06
2022-12-11T02:41:07.266Z,99104.09
2022-12-11T02:43:35.603Z,99104.09
2022-12-11T02:46:06.579Z,99093.78
2022-12-11T02:48:36.704Z,99081.31
2022-12-11T02:51:07.015Z,99079.34
2022-12-11T02:53:39.468Z,99081.53
2022-12-11T02:56:27.394Z,99078.19
2022-12-11T02:59:07.488Z,99068.56
2022-12-11T03:01:37.454Z,99084.47
2022-12-11T03:04:06.022Z,99074.06
2022-12-11T03:06:42.043Z,99073.50
2022-12-11T03:09:10.737Z,99080.47
2022-12-11T03:11:40.705Z,99082.97
2022-12-11T03:14:09.205Z,99081.47
2022-12-11T03:16:42.034Z,99085.91
2022-12-11T03:19:18.335Z,99082.06
2022-12-11T03:21:59.499Z,99094.03
2022-12-11T03:24:44.065Z,99094.63
2022-12-11T03:27:37.401Z,99104.91
2022-12-11T03:30:14.875Z,99101.03
2022-12-11T03:32:52.225Z,99114.00
2022-12-11T03:35:30.096Z,99121.81
2022-12-11T03:38:00.885Z,99119.44
2022-12-11T03:40:29.180Z,99115.97
2022-12-11T03:42:57.909Z,99119.56
2022-12-11T03:45:26.385Z,99124.88
2022-12-11T03:47:56.557Z,99116.41
2022-12-11T03:50:26.239Z,99126.84
2022-12-11T03:52:55.416Z,99132.28
2022-12-11T03:55:24.174Z,99137.56
2022-12-11T03:57:53.056Z,99140.22
2022-12-11T04:00:22.769Z,99139.41
2022-12-11T04:03:13.699Z,99148.34
2022-12-11T04:05:53.149Z,99147.50
2022-12-11T04:08:23.714Z,99145.84
2022-12-11T04:11:12.415Z,99142.50
2022-12-11T04:13:42.776Z,99146.94
2022-12-11T04:16:11.727Z,99146.13
2022-12-11T04:18:59.175Z,99143.09
2022-12-11T04:21:46.509Z,99148.09
2022-12-11T04:24:15.449Z,99151.72
2022-12-11T04:26:47.635Z,99151.88
2022-12-11T04:29:16.337Z,99143.38
2022-12-11T04:31:46.075Z,99153.69
2022-12-11T04:34:16.068Z,99157.31
2022-12-11T04:36:44.526Z,99149.50
2022-12-11T04:39:13.298Z,99146.72
2022-12-11T04:41:41.799Z,99142.69
2022-12-11T04:44:10.559Z,99147.00
2022-12-11T04:46:39.658Z,99148.97
2022-12-11T04:49:09.914Z,99147.31
2022-12-11T04:51:39.386Z,99156.75
2022-12-11T04:54:08.240Z,99164.84
2022-12-11T04:56:36.716Z,99155.41
2022-12-11T04:59:05.495Z,99160.69
2022-12-11T05:01:34.020Z,99161.81
2022-12-11T05:04:03.019Z,99155.72
2022-12-11T05:06:31.505Z,99152.22
2022-12-11T05:09:00.388Z,99152.28
2022-12-11T05:11:28.930Z,99155.66
2022-12-11T05:13:58.759Z,99150.06
2022-12-11T05:16:28.240Z,99145.53
2022-12-11T05:18:56.980Z,99142.13
2022-12-11T05:21:27.967Z,99139.06
2022-12-11T05:23:59.052Z,99142.06
2022-12-11T05:26:28.190Z,99152.97
2022-12-11T05:28:56.841Z,99144.44
2022-12-11T05:31:26.945Z,99145.41
2022-12-11T05:33:56.670Z,99154.78
2022-12-11T05:36:33.389Z,99148.88
2022-12-11T05:39:02.329Z,99146.28
2022-12-11T05:41:31.397Z,99144.03
2022-12-11T05:44:00.438Z,99139.94
2022-12-11T05:46:30.814Z,99141.03
2022-12-11T05:49:02.001Z,99134.09
2022-12-11T05:51:30.683Z,99130.84
2022-12-11T05:53:59.597Z,99137.38
2022-12-11T05:56:32.929Z,99132.09
2022-12-11T05:59:02.217Z,99142.09
2022-12-11T06:01:38.950Z,99132.47
2022-12-11T06:04:09.680Z,99128.84
2022-12-11T06:06:38.419Z,99136.16
2022-12-11T06:09:07.398Z,99130.72
2022-12-11T06:11:36.471Z,99122.59
2022-12-11T06:14:05.361Z,99127.78
2022-12-11T06:16:34.001Z,99116.03
2022-12-11T06:19:02.829Z,99118.72
2022-12-11T06:21:33.000Z,99115.41
2022-12-11T06:24:03.559Z,99119.91
2022-12-11T06:26:32.285Z,99121.06
2022-12-11T06:29:01.095Z,99131.88
2022-12-11T06:31:29.686Z,99127.75
2022-12-11T06:33:58.438Z,99120.75
2022-12-11T06:36:26.841Z,99126.09
2022-12-11T06:38:56.008Z,99130.09
2022-12-11T06:41:24.443Z,99141.72
2022-12-11T06:43:53.266Z,99145.38
2022-12-11T06:46:21.989Z,99147.53
2022-12-11T06:48:50.829Z,99142.38
2022-12-11T06:51:21.905Z,99154.97
2022-12-11T06:53:56.009Z,99149.97
2022-12-11T06:56:24.548Z,99152.13
2022-12-11T06:58:55.798Z,99154.78
2022-12-11T07:01:28.295Z,99163.25
2022-12-11T07:04:02.484Z,99169.72
2022-12-11T07:06:31.354Z,99158.19
2022-12-11T07:09:00.021Z,99164.50
2022-12-11T07:11:28.360Z,99160.47
2022-12-11T07:14:00.850Z,99159.47
2022-12-11T07:16:29.374Z,99161.97
2022-12-11T07:18:59.220Z,99163.44
2022-12-11T07:21:27.702Z,99171.03
2022-12-11T07:23:56.710Z,99165.88
2022-12-11T07:26:25.300Z,99161.91
2022-12-11T07:28:56.879Z,99163.69
2022-12-11T07:31:26.463Z,99172.63
2022-12-11T07:33:59.898Z,99183.25
2022-12-11T07:36:28.572Z,99183.06
2022-12-11T07:38:57.440Z,99184.38
2022-12-11T07:41:28.119Z,99187.31
2022-12-11T07:43:57.139Z,99196.44
2022-12-11T07:46:27.436Z,99193.25
2022-12-11T07:48:57.344Z,99188.59
2022-12-11T07:51:30.631Z,99197.53
2022-12-11T07:54:05.009Z,99206.78
2022-12-11T07:56:33.793Z,99221.19
2022-12-11T07:59:03.454Z,99222.50
2022-12-11T08:01:33.692Z,99237.88
2022-12-11T08:04:03.750Z,99248.78
2022-12-11T08:06:34.992Z,99246.63
2022-12-11T08:09:15.983Z,99247.75
2022-12-11T08:11:48.791Z,99258.94
2022-12-11T08:14:17.909Z,99257.59
2022-12-11T08:16:46.554Z,99262.25
2022-12-11T08:19:15.752Z,99264.84
2022-12-11T08:21:44.293Z,99271.72
2022-12-11T08:24:14.893Z,99272.88
2022-12-11T08:26:43.602Z,99281.97
2022-12-11T08:29:12.702Z,99293.59
2022-12-11T08:31:41.678Z,99288.94
2022-12-11T08:34:14.256Z,99296.88
2022-12-11T08:36:44.419Z,99297.56
2022-12-11T08:39:13.349Z,99297.56
2022-12-11T08:41:42.161Z,99297.44
2022-12-11T08:44:16.289Z,99302.59
2022-12-11T08:46:46.956Z,99307.06
2022-12-11T08:49:15.781Z,99313.28
2022-12-11T08:51:44.470Z,99320.63
2022-12-11T08:54:13.491Z,99321.88
2022-12-11T08:56:42.129Z,99325.28
2022-12-11T08:59:11.092Z,99329.94
2022-12-11T09:01:40.167Z,99328.78
2022-12-11T09:04:09.179Z,99335.81
2022-12-11T09:06:37.904Z,99330.59
2022-12-11T09:09:06.891Z,99345.75
2022-12-11T09:11:38.330Z,99337.41
2022-12-11T09:14:08.297Z,99344.13
2022-12-11T09:16:40.484Z,99348.84
2022-12-11T09:19:13.131Z,99360.50
2022-12-11T09:21:42.653Z,99359.88
2022-12-11T09:24:12.110Z,99362.53
2022-12-11T09:26:41.062Z,99361.59
2022-12-11T09:29:10.734Z,99369.94
2022-12-11T09:31:40.134Z,99372.47
2022-12-11T09:34:11.940Z,99371.50
2022-12-11T09:36:41.999Z,99366.78
2022-12-11T09:39:12.613Z,99375.13
2022-12-11T09:42:07.920Z,99364.66
2022-12-11T09:44:36.890Z,99378.09
2022-12-11T09:47:28.769Z,99378.09
2022-12-11T09:50:03.449Z,99377.13
2022-12-11T09:52:47.193Z,99382.25
2022-12-11T09:55:21.269Z,99381.88
2022-12-11T09:58:05.761Z,99380.34
2022-12-11T10:00:39.661Z,99380.47
2022-12-11T10:03:28.001Z,99372.28
2022-12-11T10:06:46.707Z,99367.16
2022-12-11T10:09:32.494Z,99364.63
2022-12-11T10:12:12.995Z,99357.31
2022-12-11T10:15:17.354Z,99359.09
2022-12-11T10:17:47.575Z,99354.94
2022-12-11T10:20:32.159Z,99364.41
2022-12-11T10:23:02.977Z,99360.16
2022-12-11T10:25:54.178Z,99372.66
2022-12-11T10:28:23.187Z,99370.41
2022-12-11T10:31:17.378Z,99380.72
2022-12-11T10:34:00.745Z,99373.47
2022-12-11T10:36:32.067Z,99378.53
2022-12-11T10:39:01.066Z,99379.47
2022-12-11T10:41:39.953Z,99374.53
2022-12-11T10:44:35.535Z,99367.38
2022-12-11T10:47:15.102Z,99361.88
2022-12-11T10:49:52.223Z,99366.66
2022-12-11T10:52:41.524Z,99373.19
2022-12-11T10:55:21.673Z,99375.56
2022-12-11T10:58:01.607Z,99368.38
2022-12-11T11:00:40.944Z,99369.03
2022-12-11T11:03:22.953Z,99371.44
2022-12-11T11:06:12.385Z,99362.00
2022-12-11T11:08:46.337Z,99367.28
2022-12-11T11:11:33.815Z,99366.75
2022-12-11T11:14:10.117Z,99365.78
2022-12-11T11:16:40.532Z,99360.47
2022-12-11T11:19:15.694Z,99369.25
2022-12-11T11:21:53.503Z,99367.75
2022-12-11T11:24:29.880Z,99368.72
2022-12-11T11:27:14.365Z,99376.31
2022-12-11T11:29:43.379Z,99380.94
2022-12-11T11:32:17.016Z,99378.91
2022-12-11T11:34:45.823Z,99369.56
2022-12-11T11:37:32.681Z,99376.84
2022-12-11T11:40:25.264Z,99375.34
2022-12-11T11:43:00.688Z,99383.75
2022-12-11T11:45:41.082Z,99382.41
2022-12-11T11:48:13.116Z,99386.38
2022-12-11T11:50:45.327Z,99386.97
2022-12-11T11:53:24.843Z,99390.94
2022-12-11T11:56:06.242Z,99390.09
2022-12-11T11:58:49.974Z,99392.63
2022-12-11T12:01:19.499Z,99394.94
2022-12-11T12:03:49.032Z,99397.31
2022-12-11T12:06:29.834Z,99392.06
2022-12-11T12:09:13.726Z,99395.16
2022-12-11T12:12:08.016Z,99403.47
2022-12-11T12:14:52.089Z,99410.47
2022-12-11T12:17:48.182Z,99412.50
2022-12-11T12:20:36.846Z,99409.25
2022-12-11T12:23:38.831Z,99415.16
2022-12-11T12:26:32.606Z,99420.19
2022-12-11T12:29:08.015Z,99420.63
2022-12-11T12:31:37.092Z,99424.44
2022-12-11T12:34:42.092Z,99425.41
2022-12-11T12:37:37.486Z,99434.66
2022-12-11T12:40:27.483Z,99440.97
2022-12-11T12:43:23.903Z,99440.75
2022-12-11T12:46:12.231Z,99447.19
2022-12-11T12:48:41.181Z,99450.84
2022-12-11T12:51:12.934Z,99450.47
2022-12-11T12:53:43.139Z,99458.91
2022-12-11T12:56:12.512Z,99449.53
2022-12-11T12:58:45.553Z,99460.03
2022-12-11T13:01:18.359Z,99461.03
2022-12-11T13:03:58.593Z,99454.16
2022-12-11T13:06:35.700Z,99457.16
2022-12-11T13:09:24.494Z,99457.44
2022-12-11T13:11:57.994Z,99458.59
2022-12-11T13:14:33.669Z,99467.84
2022-12-11T13:17:21.631Z,99470.78
2022-12-11T13:19:53.535Z,99474.78
2022-12-11T13:22:24.322Z,99477.84
2022-12-11T13:24:53.360Z,99479.88
2022-12-11T13:27:46.643Z,99489.22
2022-12-11T13:30:15.514Z,99488.31
2022-12-11T13:32:53.861Z,99484.91
2022-12-11T13:35:22.892Z,99489.47
2022-12-11T13:37:51.739Z,99497.50
2022-12-11T13:40:24.891Z,99497.59
2022-12-11T13:43:01.011Z,99502.09
2022-12-11T13:45:45.449Z,99504.59
2022-12-11T13:48:24.351Z,99513.09
2022-12-11T13:50:53.794Z,99500.25
2022-12-11T13:53:22.779Z,99503.59
2022-12-11T13:56:06.468Z,99499.28
2022-12-11T13:58:35.528Z,99513.19
2022-12-11T14:01:11.704Z,99514.72
2022-12-11T14:04:00.330Z,99516.72
2022-12-11T14:06:31.337Z,99502.22
2022-12-11T14:09:01.340Z,99508.34
2022-12-11T14:11:33.086Z,99512.44
2022-12-11T14:14:03.702Z,99520.88
2022-12-11T14:16:33.017Z,99525.63
2022-12-11T14:19:07.790Z,99531.09
2022-12-11T14:21:37.041Z,99527.75
2022-12-11T14:24:07.154Z,99533.25
2022-12-11T14:26:39.169Z,99524.56
2022-12-11T14:29:08.053Z,99522.38
2022-12-11T14:31:44.079Z,99526.03
2022-12-11T14:34:21.478Z,99516.53
2022-12-11T14:36:51.103Z,99521.81
2022-12-11T14:39:35.453Z,99520.72
2022-12-11T14:42:13.007Z,99526.53
2022-12-11T14:44:52.801Z,99530.41
2022-12-11T14:47:33.427Z,99530.53
2022-12-11T14:50:51.847Z,99533.63
2022-12-11T14:53:24.578Z,99533.31
2022-12-11T14:55:53.493Z,99536.53
2022-12-11T14:58:24.408Z,99540.09
2022-12-11T15:01:04.859Z,99550.13
2022-12-11T15:03:36.911Z,99548.38
2022-12-11T15:06:24.484Z,99545.75
2022-12-11T15:08:53.903Z,99548.66
2022-12-11T15:11:23.882Z,99555.78
2022-12-11T15:14:00.163Z,99548.78
2022-12-11T15:16:32.028Z,99554.44
2022-12-11T15:19:02.549Z,99553.56
2022-12-11T15:21:33.274Z,99552.53
2022-12-11T15:24:04.239Z,99550.00
2022-12-11T15:26:38.540Z,99555.63
2022-12-11T15:29:28.366Z,99567.38
2022-12-11T15:32:23.719Z,99569.50
2022-12-11T15:34:59.898Z,99562.53
2022-12-11T15:37:36.523Z,99574.13
2022-12-11T15:40:06.124Z,99568.94
2022-12-11T15:42:40.293Z,99570.25
2022-12-11T15:45:29.739Z,99572.34
2022-12-11T15:47:59.849Z,99575.31
2022-12-11T15:50:29.795Z,99573.50
2022-12-11T15:52:58.644Z,99582.81
2022-12-11T15:55:28.259Z,99588.69
2022-12-11T15:58:02.202Z,99591.75
2022-12-11T16:00:32.421Z,99593.66
2022-12-11T16:03:01.186Z,99598.03
2022-12-11T16:05:30.782Z,99596.94
2022-12-11T16:08:00.211Z,99604.19
2022-12-11T16:10:30.210Z,99614.34
2022-12-11T16:12:59.942Z,99614.56
2022-12-11T16:15:29.774Z,99620.06
2022-12-11T16:18:07.278Z,99623.94
2022-12-11T16:20:36.938Z,99630.50
2022-12-11T16:23:05.758Z,99635.13
2022-12-11T16:25:36.808Z,99625.66
2022-12-11T16:28:05.816Z,99628.66
2022-12-11T16:30:36.362Z,99630.31
2022-12-11T16:33:11.801Z,99625.16
2022-12-11T16:35:43.320Z,99631.59
2022-12-11T16:38:12.680Z,99640.84
2022-12-11T16:40:42.058Z,99640.44
2022-12-11T16:43:11.200Z,99642.97
2022-12-11T16:45:41.122Z,99637.78
2022-12-11T16:48:09.942Z,99649.41
2022-12-11T16:50:40.697Z,99654.19
2022-12-11T16:53:09.859Z,99653.63
2022-12-11T16:55:40.841Z,99654.78
2022-12-11T16:58:09.889Z,99649.91
2022-12-11T17:00:39.312Z,99653.25
2022-12-11T17:03:08.066Z,99651.44
2022-12-11T17:05:39.219Z,99649.84
2022-12-11T17:08:08.472Z,99650.94
2022-12-11T17:10:41.828Z,99648.50
2022-12-11T17:13:10.470Z,99647.25
2022-12-11T17:15:45.984Z,99649.72
2022-12-11T17:18:14.943Z,99649.50
2022-12-11T17:20:44.855Z,99651.75
2022-12-11T17:23:13.960Z,99653.84
2022-12-11T17:25:44.782Z,99654.13
2022-12-11T17:28:14.631Z,99652.69
2022-12-11T17:30:45.210Z,99655.22
2022-12-11T17:33:14.544Z,99656.88
2022-12-11T17:35:43.830Z,99656.88
2022-12-11T17:38:13.102Z,99660.97
2022-12-11T17:40:44.187Z,99656.78
2022-12-11T17:43:15.442Z,99658.75
2022-12-11T17:45:46.283Z,99664.22
2022-12-11T17:48:15.551Z,99664.69
2022-12-11T17:50:46.900Z,99669.59
2022-12-11T17:53:17.360Z,99667.25
2022-12-11T17:55:46.921Z,99669.47
2022-12-11T17:58:17.220Z,99670.44
2022-12-11T18:00:47.703Z,99674.69
2022-12-11T18:03:16.504Z,99671.63
2022-12-11T18:05:50.483Z,99678.91
2022-12-11T18:08:26.479Z,99679.22
2022-12-11T18:10:55.700Z,99681.63
2022-12-11T18:13:25.289Z,99674.09
2022-12-11T18:16:06.167Z,99677.03
2022-12-11T18:18:35.012Z,99675.22
2022-12-11T18:21:04.176Z,99682.66
2022-12-11T18:23:33.010Z,99685.81
2022-12-11T18:26:03.220Z,99689.88
2022-12-11T18:28:33.232Z,99686.94
2022-12-11T18:31:03.795Z,99688.72
2022-12-11T18:33:35.458Z,99681.44
2022-12-11T18:36:05.529Z,99690.44
2022-12-11T18:38:35.042Z,99684.03
2022-12-11T18:41:06.443Z,99691.00
2022-12-11T18:43:35.951Z,99687.00
2022-12-11T18:46:09.563Z,99692.69
2022-12-11T18:48:38.456Z,99697.56
2022-12-11T18:51:12.667Z,99697.81
2022-12-11T18:53:41.421Z,99710.97
2022-12-11T18:56:12.409Z,99714.38
2022-12-11T18:58:41.275Z,99705.59
2022-12-11T19:01:14.409Z,99711.03
2022-12-11T19:03:45.858Z,99710.16
2022-12-11T19:06:25.458Z,99714.78
2022-12-11T19:08:54.713Z,99726.03
2022-12-11T19:11:25.150Z,99722.81
2022-12-11T19:13:54.118Z,99721.16
2022-12-11T19:16:25.095Z,99720.47
2022-12-11T19:18:54.323Z,99715.44
2022-12-11T19:21:23.649Z,99718.56
2022-12-11T19:23:52.349Z,99716.31
2022-12-11T19:26:23.101Z,99721.91
2022-12-11T19:28:53.289Z,99723.19
2022-12-11T19:31:23.311Z,99728.50
2022-12-11T19:33:52.579Z,99733.69
2022-12-11T19:36:24.121Z,99735.31
2022-12-11T19:38:56.410Z,99736.41
2022-12-11T19:41:28.852Z,99733.63
2022-12-11T19:43:58.211Z,99747.31
2022-12-11T19:46:27.290Z,99741.41
2022-12-11T19:48:57.390Z,99741.13
2022-12-11T19:51:29.888Z,99748.59
2022-12-11T19:53:59.051Z,99744.28
2022-12-11T19:56:27.851Z,99749.09
2022-12-11T19:58:56.372Z,99757.06
2022-12-11T20:01:30.589Z,99753.78
2022-12-11T20:04:01.918Z,99756.25
2022-12-11T20:06:32.642Z,99757.47
2022-12-11T20:09:01.896Z,99768.56
2022-12-11T20:11:31.439Z,99763.53
2022-12-11T20:14:00.653Z,99770.91
2022-12-11T20:16:53.746Z,99773.28
2022-12-11T20:19:19.763Z,99778.78
2022-12-11T20:21:48.853Z,99776.53
2022-12-11T20:24:17.536Z,99775.72
2022-12-11T20:26:47.965Z,99782.31
2022-12-11T20:29:16.744Z,99786.94
2022-12-11T20:31:46.971Z,99788.91
2022-12-11T20:34:16.667Z,99789.50
2022-12-11T20:36:48.634Z,99795.94
2022-12-11T20:39:17.752Z,99797.91
2022-12-11T20:41:46.973Z,99800.31
2022-12-11T20:44:16.987Z,99801.16
2022-12-11T20:46:46.994Z,99802.16
2022-12-11T20:49:16.734Z,99800.72
2022-12-11T20:51:47.255Z,99795.09
2022-12-11T20:54:16.023Z,99801.97
2022-12-11T20:56:45.124Z,99805.41
2022-12-11T20:59:13.874Z,99809.44
2022-12-11T21:01:43.381Z,99802.56
2022-12-11T21:04:12.404Z,99810.63
2022-12-11T21:06:43.227Z,99818.16
2022-12-11T21:09:18.165Z,99816.38
2022-12-11T21:11:47.263Z,99813.53
2022-12-11T21:14:17.274Z,99819.72
2022-12-11T21:16:46.525Z,99818.56
2022-12-11T21:19:18.113Z,99813.84
2022-12-11T21:21:47.193Z,99814.16
2022-12-11T21:24:36.163Z,99812.50
2022-12-11T21:27:05.034Z,99828.44
2022-12-11T21:29:34.774Z,99832.53
2022-12-11T21:32:05.357Z,99835.47
2022-12-11T21:34:34.123Z,99831.75
2022-12-11T21:37:04.004Z,99830.06
2022-12-11T21:39:38.814Z,99840.69
2022-12-11T21:42:08.260Z,99841.97
2022-12-11T21:45:31.401Z,99843.13
2022-12-11T21:47:28.273Z,99846.19
2022-12-11T21:49:56.971Z,99856.00
2022-12-11T21:52:26.027Z,99861.59
2022-12-11T21:54:54.823Z,99851.41
2022-12-11T21:57:26.492Z,99857.88
2022-12-11T21:59:55.581Z,99860.13
2022-12-11T22:02:24.482Z,99861.25
2022-12-11T22:04:53.251Z,99862.78
2022-12-11T22:07:22.196Z,99866.44
2022-12-11T22:09:50.831Z,99868.94
2022-12-11T22:12:25.753Z,99869.94
2022-12-11T22:14:54.532Z,99865.59
2022-12-11T22:17:23.651Z,99872.88
2022-12-11T22:19:52.414Z,99875.16
2022-12-11T22:22:21.520Z,99876.22
2022-12-11T22:24:50.938Z,99879.88
2022-12-11T22:27:23.648Z,99877.50
2022-12-11T22:29:52.910Z,99869.66
2022-12-11T22:32:23.022Z,99869.84
2022-12-11T22:34:51.770Z,99877.94
2022-12-11T22:37:20.808Z,99876.56
2022-12-11T22:39:49.714Z,99873.91
2022-12-11T22:42:18.733Z,99875.44
2022-12-11T22:44:47.492Z,99879.66
2022-12-11T22:47:17.960Z,99881.06
2022-12-11T22:49:46.604Z,99875.19
2022-12-11T22:52:15.702Z,99872.13
2022-12-11T22:54:47.245Z,99880.50
2022-12-11T22:57:16.363Z,99880.78
2022-12-11T22:59:45.153Z,99876.88
2022-12-11T23:02:15.650Z,99874.63
2022-12-11T23:04:45.172Z,99880.22
2022-12-11T23:07:14.173Z,99878.00
2022-12-11T23:09:42.642Z,99869.03
2022-12-11T23:12:11.420Z,99875.88
2022-12-11T23:14:39.771Z,99880.50
2022-12-11T23:17:08.651Z,99872.94
2022-12-11T23:19:37.133Z,99883.00
2022-12-11T23:22:05.963Z,99871.53
2022-12-11T23:24:34.568Z,99873.63
2022-12-11T23:27:03.282Z,99856.88
2022-12-11T23:29:31.607Z,99860.78
2022-12-11T23:32:00.214Z,99863.72
2022-12-11T23:34:28.534Z,99864.81
2022-12-11T23:36:58.363Z,99864.22
2022-12-11T23:39:26.703Z,99858.50
2022-12-11T23:41:55.333Z,99859.47
2022-12-11T23:44:23.770Z,99855.53
2022-12-11T23:46:52.473Z,99860.84
2022-12-11T23:49:20.902Z,99864.63
2022-12-11T23:51:49.564Z,99866.56
2022-12-11T23:54:17.953Z,99863.22
2022-12-11T23:56:46.614Z,99866.13
2022-12-11T23:59:15.173Z,99861.09
